sensor_id;sensor_type;location;lat;lon;timestamp;P1;durP1;ratioP1;P2;durP2;ratioP2
70433;SDS011;57876;47.792;12.960;2023-03-23T00:02:02;3.70;;;0.90;;
70433;SDS011;57876;47.792;12.960;2023-03-23T00:04:27;3.70;;;0.70;;
70433;SDS011;57876;47.792;12.960;2023-03-23T00:06:53;3.85;;;0.80;;
70433;SDS011;57876;47.792;12.960;2023-03-23T00:09:17;3.83;;;0.83;;
70433;SDS011;57876;47.792;12.960;2023-03-23T00:11:47;3.95;;;0.90;;
70433;SDS011;57876;47.792;12.960;2023-03-23T00:14:12;3.50;;;0.70;;
70433;SDS011;57876;47.792;12.960;2023-03-23T00:16:36;3.83;;;0.88;;
70433;SDS011;57876;47.792;12.960;2023-03-23T00:19:05;4.03;;;0.80;;
70433;SDS011;57876;47.792;12.960;2023-03-23T00:21:34;4.10;;;0.90;;
70433;SDS011;57876;47.792;12.960;2023-03-23T00:24:07;3.97;;;0.90;;
70433;SDS011;57876;47.792;12.960;2023-03-23T00:26:38;4.10;;;0.90;;
70433;SDS011;57876;47.792;12.960;2023-03-23T00:29:08;3.80;;;0.82;;
70433;SDS011;57876;47.792;12.960;2023-03-23T00:31:37;4.30;;;0.87;;
70433;SDS011;57876;47.792;12.960;2023-03-23T00:34:03;4.05;;;0.80;;
70433;SDS011;57876;47.792;12.960;2023-03-23T00:36:28;3.90;;;0.70;;
70433;SDS011;57876;47.792;12.960;2023-03-23T00:38:54;3.78;;;0.80;;
70433;SDS011;57876;47.792;12.960;2023-03-23T00:41:21;3.53;;;0.70;;
70433;SDS011;57876;47.792;12.960;2023-03-23T00:43:46;3.80;;;0.80;;
70433;SDS011;57876;47.792;12.960;2023-03-23T00:46:12;3.80;;;0.70;;
70433;SDS011;57876;47.792;12.960;2023-03-23T00:48:37;3.45;;;0.80;;
70433;SDS011;57876;47.792;12.960;2023-03-23T00:51:08;3.30;;;0.70;;
70433;SDS011;57876;47.792;12.960;2023-03-23T00:53:36;4.03;;;0.90;;
70433;SDS011;57876;47.792;12.960;2023-03-23T00:56:02;3.90;;;0.80;;
70433;SDS011;57876;47.792;12.960;2023-03-23T00:58:26;4.37;;;1.00;;
70433;SDS011;57876;47.792;12.960;2023-03-23T01:00:50;3.85;;;0.90;;
70433;SDS011;57876;47.792;12.960;2023-03-23T01:03:15;4.20;;;0.90;;
70433;SDS011;57876;47.792;12.960;2023-03-23T01:05:42;3.90;;;0.90;;
70433;SDS011;57876;47.792;12.960;2023-03-23T01:08:06;4.03;;;1.00;;
70433;SDS011;57876;47.792;12.960;2023-03-23T01:10:31;3.97;;;0.80;;
70433;SDS011;57876;47.792;12.960;2023-03-23T01:13:02;4.18;;;0.88;;
70433;SDS011;57876;47.792;12.960;2023-03-23T01:15:30;4.18;;;1.08;;
70433;SDS011;57876;47.792;12.960;2023-03-23T01:17:54;3.87;;;0.77;;
70433;SDS011;57876;47.792;12.960;2023-03-23T01:20:19;4.18;;;0.80;;
70433;SDS011;57876;47.792;12.960;2023-03-23T01:22:44;3.73;;;0.90;;
70433;SDS011;57876;47.792;12.960;2023-03-23T01:25:09;3.90;;;0.70;;
70433;SDS011;57876;47.792;12.960;2023-03-23T01:27:35;3.60;;;0.80;;
70433;SDS011;57876;47.792;12.960;2023-03-23T01:30:00;3.78;;;0.80;;
70433;SDS011;57876;47.792;12.960;2023-03-23T01:32:25;3.47;;;0.70;;
70433;SDS011;57876;47.792;12.960;2023-03-23T01:34:49;3.83;;;0.80;;
70433;SDS011;57876;47.792;12.960;2023-03-23T01:37:14;3.35;;;0.73;;
70433;SDS011;57876;47.792;12.960;2023-03-23T01:39:39;3.53;;;0.77;;
70433;SDS011;57876;47.792;12.960;2023-03-23T01:42:04;3.83;;;0.70;;
70433;SDS011;57876;47.792;12.960;2023-03-23T01:46:53;3.70;;;0.80;;
70433;SDS011;57876;47.792;12.960;2023-03-23T01:49:19;4.15;;;0.80;;
70433;SDS011;57876;47.792;12.960;2023-03-23T01:54:41;3.83;;;0.80;;
70433;SDS011;57876;47.792;12.960;2023-03-23T01:57:13;3.53;;;0.77;;
70433;SDS011;57876;47.792;12.960;2023-03-23T01:59:41;3.53;;;0.80;;
70433;SDS011;57876;47.792;12.960;2023-03-23T02:02:12;3.90;;;1.00;;
70433;SDS011;57876;47.792;12.960;2023-03-23T02:04:36;3.90;;;0.87;;
70433;SDS011;57876;47.792;12.960;2023-03-23T02:07:01;3.97;;;0.80;;
70433;SDS011;57876;47.792;12.960;2023-03-23T02:09:27;3.40;;;0.77;;
70433;SDS011;57876;47.792;12.960;2023-03-23T02:11:52;4.00;;;0.80;;
70433;SDS011;57876;47.792;12.960;2023-03-23T02:14:18;3.53;;;0.85;;
70433;SDS011;57876;47.792;12.960;2023-03-23T02:22:26;3.72;;;0.70;;
70433;SDS011;57876;47.792;12.960;2023-03-23T02:36:30;3.95;;;0.80;;
70433;SDS011;57876;47.792;12.960;2023-03-23T02:39:08;3.45;;;0.70;;
70433;SDS011;57876;47.792;12.960;2023-03-23T02:41:36;3.63;;;0.80;;
70433;SDS011;57876;47.792;12.960;2023-03-23T02:44:05;3.10;;;0.70;;
70433;SDS011;57876;47.792;12.960;2023-03-23T02:46:32;3.43;;;0.80;;
70433;SDS011;57876;47.792;12.960;2023-03-23T02:48:59;3.35;;;0.80;;
70433;SDS011;57876;47.792;12.960;2023-03-23T02:51:27;3.95;;;0.77;;
70433;SDS011;57876;47.792;12.960;2023-03-23T02:53:53;3.70;;;0.73;;
70433;SDS011;57876;47.792;12.960;2023-03-23T02:56:20;4.10;;;0.80;;
70433;SDS011;57876;47.792;12.960;2023-03-23T02:58:47;3.83;;;0.90;;
70433;SDS011;57876;47.792;12.960;2023-03-23T03:03:57;4.03;;;0.90;;
70433;SDS011;57876;47.792;12.960;2023-03-23T03:06:38;3.60;;;0.70;;
70433;SDS011;57876;47.792;12.960;2023-03-23T03:11:38;3.70;;;0.75;;
70433;SDS011;57876;47.792;12.960;2023-03-23T03:14:26;3.60;;;0.80;;
70433;SDS011;57876;47.792;12.960;2023-03-23T03:19:52;3.55;;;0.75;;
70433;SDS011;57876;47.792;12.960;2023-03-23T03:22:21;3.75;;;0.80;;
70433;SDS011;57876;47.792;12.960;2023-03-23T03:24:47;3.60;;;0.70;;
70433;SDS011;57876;47.792;12.960;2023-03-23T03:27:15;3.70;;;0.77;;
70433;SDS011;57876;47.792;12.960;2023-03-23T03:29:42;3.20;;;0.70;;
70433;SDS011;57876;47.792;12.960;2023-03-23T03:32:12;3.70;;;0.80;;
70433;SDS011;57876;47.792;12.960;2023-03-23T03:34:41;3.60;;;0.80;;
70433;SDS011;57876;47.792;12.960;2023-03-23T03:37:05;4.23;;;0.90;;
70433;SDS011;57876;47.792;12.960;2023-03-23T03:39:30;3.30;;;0.80;;
70433;SDS011;57876;47.792;12.960;2023-03-23T03:41:55;3.97;;;0.70;;
70433;SDS011;57876;47.792;12.960;2023-03-23T03:44:19;3.20;;;0.70;;
70433;SDS011;57876;47.792;12.960;2023-03-23T03:46:44;3.97;;;0.90;;
70433;SDS011;57876;47.792;12.960;2023-03-23T03:49:09;3.33;;;0.60;;
70433;SDS011;57876;47.792;12.960;2023-03-23T03:51:38;3.60;;;0.80;;
70433;SDS011;57876;47.792;12.960;2023-03-23T03:54:03;3.65;;;0.75;;
70433;SDS011;57876;47.792;12.960;2023-03-23T03:56:27;3.55;;;0.63;;
70433;SDS011;57876;47.792;12.960;2023-03-23T03:58:52;3.83;;;0.80;;
70433;SDS011;57876;47.792;12.960;2023-03-23T04:01:18;3.22;;;0.75;;
70433;SDS011;57876;47.792;12.960;2023-03-23T04:03:45;3.40;;;0.60;;
70433;SDS011;57876;47.792;12.960;2023-03-23T04:06:11;3.33;;;0.70;;
70433;SDS011;57876;47.792;12.960;2023-03-23T04:08:38;3.77;;;0.80;;
70433;SDS011;57876;47.792;12.960;2023-03-23T04:11:05;3.80;;;0.90;;
70433;SDS011;57876;47.792;12.960;2023-03-23T04:13:30;3.60;;;0.80;;
70433;SDS011;57876;47.792;12.960;2023-03-23T04:15:54;3.67;;;0.73;;
70433;SDS011;57876;47.792;12.960;2023-03-23T04:18:19;3.60;;;0.80;;
70433;SDS011;57876;47.792;12.960;2023-03-23T04:20:45;3.30;;;0.80;;
70433;SDS011;57876;47.792;12.960;2023-03-23T04:23:11;3.55;;;0.75;;
70433;SDS011;57876;47.792;12.960;2023-03-23T04:25:35;4.18;;;0.80;;
70433;SDS011;57876;47.792;12.960;2023-03-23T04:28:00;3.57;;;0.80;;
70433;SDS011;57876;47.792;12.960;2023-03-23T04:30:25;3.53;;;0.80;;
70433;SDS011;57876;47.792;12.960;2023-03-23T04:32:51;3.60;;;0.80;;
70433;SDS011;57876;47.792;12.960;2023-03-23T04:35:16;3.80;;;0.80;;
70433;SDS011;57876;47.792;12.960;2023-03-23T04:37:43;3.95;;;0.90;;
70433;SDS011;57876;47.792;12.960;2023-03-23T04:40:07;3.67;;;0.67;;
70433;SDS011;57876;47.792;12.960;2023-03-23T04:42:38;3.60;;;0.77;;
70433;SDS011;57876;47.792;12.960;2023-03-23T04:45:04;3.50;;;0.80;;
70433;SDS011;57876;47.792;12.960;2023-03-23T04:47:32;4.00;;;0.85;;
70433;SDS011;57876;47.792;12.960;2023-03-23T04:49:58;4.67;;;0.90;;
70433;SDS011;57876;47.792;12.960;2023-03-23T04:52:24;3.22;;;0.63;;
70433;SDS011;57876;47.792;12.960;2023-03-23T04:54:49;3.70;;;0.80;;
70433;SDS011;57876;47.792;12.960;2023-03-23T04:57:14;3.40;;;0.60;;
70433;SDS011;57876;47.792;12.960;2023-03-23T04:59:39;3.40;;;0.68;;
70433;SDS011;57876;47.792;12.960;2023-03-23T05:02:04;3.53;;;0.70;;
70433;SDS011;57876;47.792;12.960;2023-03-23T05:04:29;3.58;;;0.70;;
70433;SDS011;57876;47.792;12.960;2023-03-23T05:06:53;3.80;;;0.80;;
70433;SDS011;57876;47.792;12.960;2023-03-23T05:09:18;4.03;;;0.90;;
70433;SDS011;57876;47.792;12.960;2023-03-23T05:11:43;3.80;;;0.70;;
70433;SDS011;57876;47.792;12.960;2023-03-23T05:14:08;3.50;;;0.80;;
70433;SDS011;57876;47.792;12.960;2023-03-23T05:16:32;3.50;;;0.70;;
70433;SDS011;57876;47.792;12.960;2023-03-23T05:18:57;3.53;;;0.77;;
70433;SDS011;57876;47.792;12.960;2023-03-23T05:21:22;3.85;;;0.80;;
70433;SDS011;57876;47.792;12.960;2023-03-23T05:23:46;3.43;;;0.83;;
70433;SDS011;57876;47.792;12.960;2023-03-23T05:26:11;3.80;;;0.93;;
70433;SDS011;57876;47.792;12.960;2023-03-23T05:28:35;3.33;;;0.60;;
70433;SDS011;57876;47.792;12.960;2023-03-23T05:31:00;3.70;;;0.80;;
70433;SDS011;57876;47.792;12.960;2023-03-23T05:33:25;3.40;;;0.70;;
70433;SDS011;57876;47.792;12.960;2023-03-23T05:35:49;3.57;;;0.70;;
70433;SDS011;57876;47.792;12.960;2023-03-23T05:38:14;3.88;;;0.90;;
70433;SDS011;57876;47.792;12.960;2023-03-23T05:40:40;3.70;;;0.90;;
70433;SDS011;57876;47.792;12.960;2023-03-23T05:43:08;3.70;;;0.70;;
70433;SDS011;57876;47.792;12.960;2023-03-23T05:45:33;3.55;;;0.82;;
70433;SDS011;57876;47.792;12.960;2023-03-23T05:47:59;4.10;;;0.90;;
70433;SDS011;57876;47.792;12.960;2023-03-23T05:50:23;3.53;;;0.70;;
70433;SDS011;57876;47.792;12.960;2023-03-23T05:52:48;3.90;;;0.80;;
70433;SDS011;57876;47.792;12.960;2023-03-23T05:55:12;3.65;;;0.80;;
70433;SDS011;57876;47.792;12.960;2023-03-23T05:57:38;3.35;;;0.70;;
70433;SDS011;57876;47.792;12.960;2023-03-23T06:00:03;3.53;;;0.73;;
70433;SDS011;57876;47.792;12.960;2023-03-23T06:02:49;3.53;;;0.80;;
70433;SDS011;57876;47.792;12.960;2023-03-23T06:05:15;3.50;;;0.70;;
70433;SDS011;57876;47.792;12.960;2023-03-23T06:07:39;3.27;;;0.60;;
70433;SDS011;57876;47.792;12.960;2023-03-23T06:10:05;3.30;;;0.70;;
70433;SDS011;57876;47.792;12.960;2023-03-23T06:12:30;4.20;;;0.80;;
70433;SDS011;57876;47.792;12.960;2023-03-23T06:14:55;3.77;;;0.80;;
70433;SDS011;57876;47.792;12.960;2023-03-23T06:17:19;3.43;;;0.80;;
70433;SDS011;57876;47.792;12.960;2023-03-23T06:19:44;3.67;;;0.70;;
70433;SDS011;57876;47.792;12.960;2023-03-23T06:22:13;3.65;;;0.77;;
70433;SDS011;57876;47.792;12.960;2023-03-23T06:24:38;2.97;;;0.60;;
70433;SDS011;57876;47.792;12.960;2023-03-23T06:27:02;3.60;;;0.80;;
70433;SDS011;57876;47.792;12.960;2023-03-23T06:29:27;3.60;;;0.80;;
70433;SDS011;57876;47.792;12.960;2023-03-23T06:31:53;3.53;;;0.70;;
70433;SDS011;57876;47.792;12.960;2023-03-23T06:34:21;3.72;;;0.80;;
70433;SDS011;57876;47.792;12.960;2023-03-23T06:36:45;3.60;;;0.80;;
70433;SDS011;57876;47.792;12.960;2023-03-23T06:39:10;4.03;;;0.88;;
70433;SDS011;57876;47.792;12.960;2023-03-23T06:41:35;3.30;;;0.60;;
70433;SDS011;57876;47.792;12.960;2023-03-23T06:43:59;3.40;;;0.63;;
70433;SDS011;57876;47.792;12.960;2023-03-23T06:46:24;3.27;;;0.60;;
70433;SDS011;57876;47.792;12.960;2023-03-23T06:48:49;3.80;;;0.80;;
70433;SDS011;57876;47.792;12.960;2023-03-23T06:51:14;3.70;;;0.70;;
70433;SDS011;57876;47.792;12.960;2023-03-23T06:53:38;3.60;;;0.70;;
70433;SDS011;57876;47.792;12.960;2023-03-23T06:56:03;3.50;;;0.70;;
70433;SDS011;57876;47.792;12.960;2023-03-23T06:58:27;3.37;;;0.60;;
70433;SDS011;57876;47.792;12.960;2023-03-23T07:00:55;3.70;;;0.80;;
70433;SDS011;57876;47.792;12.960;2023-03-23T07:03:23;3.38;;;0.65;;
70433;SDS011;57876;47.792;12.960;2023-03-23T07:05:48;3.90;;;0.80;;
70433;SDS011;57876;47.792;12.960;2023-03-23T07:08:12;3.10;;;0.70;;
70433;SDS011;57876;47.792;12.960;2023-03-23T07:10:37;3.35;;;0.73;;
70433;SDS011;57876;47.792;12.960;2023-03-23T07:13:01;3.60;;;0.80;;
70433;SDS011;57876;47.792;12.960;2023-03-23T07:15:26;3.90;;;0.80;;
70433;SDS011;57876;47.792;12.960;2023-03-23T07:17:51;3.63;;;0.87;;
70433;SDS011;57876;47.792;12.960;2023-03-23T07:20:15;3.60;;;0.70;;
70433;SDS011;57876;47.792;12.960;2023-03-23T07:22:39;3.70;;;0.77;;
70433;SDS011;57876;47.792;12.960;2023-03-23T07:25:05;3.40;;;0.70;;
70433;SDS011;57876;47.792;12.960;2023-03-23T07:27:29;3.35;;;0.60;;
70433;SDS011;57876;47.792;12.960;2023-03-23T07:29:53;3.43;;;0.70;;
70433;SDS011;57876;47.792;12.960;2023-03-23T07:32:18;3.43;;;0.70;;
70433;SDS011;57876;47.792;12.960;2023-03-23T07:34:42;3.83;;;0.70;;
70433;SDS011;57876;47.792;12.960;2023-03-23T07:37:07;3.60;;;0.80;;
70433;SDS011;57876;47.792;12.960;2023-03-23T07:39:31;3.40;;;0.70;;
70433;SDS011;57876;47.792;12.960;2023-03-23T07:41:57;4.28;;;0.80;;
70433;SDS011;57876;47.792;12.960;2023-03-23T07:44:21;3.67;;;0.70;;
70433;SDS011;57876;47.792;12.960;2023-03-23T07:46:46;3.83;;;0.85;;
70433;SDS011;57876;47.792;12.960;2023-03-23T07:49:11;3.70;;;0.80;;
70433;SDS011;57876;47.792;12.960;2023-03-23T07:51:35;3.67;;;0.70;;
70433;SDS011;57876;47.792;12.960;2023-03-23T07:54:02;3.20;;;0.70;;
70433;SDS011;57876;47.792;12.960;2023-03-23T07:56:28;3.45;;;0.70;;
70433;SDS011;57876;47.792;12.960;2023-03-23T07:58:53;3.55;;;0.75;;
70433;SDS011;57876;47.792;12.960;2023-03-23T08:01:17;3.40;;;0.80;;
70433;SDS011;57876;47.792;12.960;2023-03-23T08:03:42;3.88;;;0.70;;
70433;SDS011;57876;47.792;12.960;2023-03-23T08:06:06;3.80;;;0.80;;
70433;SDS011;57876;47.792;12.960;2023-03-23T08:08:32;3.70;;;0.70;;
70433;SDS011;57876;47.792;12.960;2023-03-23T08:10:57;3.80;;;0.90;;
70433;SDS011;57876;47.792;12.960;2023-03-23T08:13:22;3.80;;;0.80;;
70433;SDS011;57876;47.792;12.960;2023-03-23T08:15:46;3.40;;;0.70;;
70433;SDS011;57876;47.792;12.960;2023-03-23T08:18:10;5.27;;;0.80;;
70433;SDS011;57876;47.792;12.960;2023-03-23T08:20:35;3.53;;;0.80;;
70433;SDS011;57876;47.792;12.960;2023-03-23T08:23:00;3.25;;;0.70;;
70433;SDS011;57876;47.792;12.960;2023-03-23T08:25:26;3.75;;;0.80;;
70433;SDS011;57876;47.792;12.960;2023-03-23T08:27:50;3.60;;;0.77;;
70433;SDS011;57876;47.792;12.960;2023-03-23T08:30:16;3.27;;;0.70;;
70433;SDS011;57876;47.792;12.960;2023-03-23T08:32:43;3.93;;;0.77;;
70433;SDS011;57876;47.792;12.960;2023-03-23T08:35:08;3.67;;;0.80;;
70433;SDS011;57876;47.792;12.960;2023-03-23T08:37:35;3.78;;;0.80;;
70433;SDS011;57876;47.792;12.960;2023-03-23T08:39:59;3.70;;;0.80;;
70433;SDS011;57876;47.792;12.960;2023-03-23T08:42:24;4.03;;;0.80;;
70433;SDS011;57876;47.792;12.960;2023-03-23T08:44:49;4.40;;;0.80;;
70433;SDS011;57876;47.792;12.960;2023-03-23T08:47:13;3.67;;;0.80;;
70433;SDS011;57876;47.792;12.960;2023-03-23T08:49:37;3.60;;;0.70;;
70433;SDS011;57876;47.792;12.960;2023-03-23T08:52:02;3.70;;;0.80;;
70433;SDS011;57876;47.792;12.960;2023-03-23T08:54:27;3.78;;;0.80;;
70433;SDS011;57876;47.792;12.960;2023-03-23T08:56:53;3.40;;;0.68;;
70433;SDS011;57876;47.792;12.960;2023-03-23T08:59:18;3.17;;;0.70;;
70433;SDS011;57876;47.792;12.960;2023-03-23T09:01:42;3.53;;;0.80;;
70433;SDS011;57876;47.792;12.960;2023-03-23T09:04:07;4.00;;;0.80;;
70433;SDS011;57876;47.792;12.960;2023-03-23T09:06:32;3.83;;;0.80;;
70433;SDS011;57876;47.792;12.960;2023-03-23T09:08:57;4.57;;;0.80;;
70433;SDS011;57876;47.792;12.960;2023-03-23T09:11:23;3.63;;;0.85;;
70433;SDS011;57876;47.792;12.960;2023-03-23T09:13:47;3.80;;;0.70;;
70433;SDS011;57876;47.792;12.960;2023-03-23T09:16:12;3.42;;;0.65;;
70433;SDS011;57876;47.792;12.960;2023-03-23T09:18:36;4.20;;;0.80;;
70433;SDS011;57876;47.792;12.960;2023-03-23T09:21:00;3.37;;;0.73;;
70433;SDS011;57876;47.792;12.960;2023-03-23T09:23:26;3.92;;;0.73;;
70433;SDS011;57876;47.792;12.960;2023-03-23T09:25:51;3.07;;;0.67;;
70433;SDS011;57876;47.792;12.960;2023-03-23T09:28:16;3.60;;;0.70;;
70433;SDS011;57876;47.792;12.960;2023-03-23T09:30:40;3.60;;;0.73;;
70433;SDS011;57876;47.792;12.960;2023-03-23T09:33:05;3.50;;;0.70;;
70433;SDS011;57876;47.792;12.960;2023-03-23T09:35:30;3.73;;;0.70;;
70433;SDS011;57876;47.792;12.960;2023-03-23T09:37:56;4.10;;;0.80;;
70433;SDS011;57876;47.792;12.960;2023-03-23T09:40:25;3.90;;;0.90;;
70433;SDS011;57876;47.792;12.960;2023-03-23T09:45:40;3.60;;;0.70;;
70433;SDS011;57876;47.792;12.960;2023-03-23T09:50:42;3.28;;;0.70;;
70433;SDS011;57876;47.792;12.960;2023-03-23T09:55:35;3.50;;;0.70;;
70433;SDS011;57876;47.792;12.960;2023-03-23T10:00:37;3.15;;;0.70;;
70433;SDS011;57876;47.792;12.960;2023-03-23T10:03:30;3.75;;;0.70;;
70433;SDS011;57876;47.792;12.960;2023-03-23T10:06:03;3.75;;;0.80;;
70433;SDS011;57876;47.792;12.960;2023-03-23T10:08:29;3.53;;;0.70;;
70433;SDS011;57876;47.792;12.960;2023-03-23T10:16:01;3.67;;;0.70;;
70433;SDS011;57876;47.792;12.960;2023-03-23T10:18:46;3.30;;;0.70;;
70433;SDS011;57876;47.792;12.960;2023-03-23T10:21:17;3.27;;;0.63;;
70433;SDS011;57876;47.792;12.960;2023-03-23T10:24:01;3.75;;;0.75;;
70433;SDS011;57876;47.792;12.960;2023-03-23T10:26:37;2.78;;;0.50;;
70433;SDS011;57876;47.792;12.960;2023-03-23T10:31:45;3.55;;;0.70;;
70433;SDS011;57876;47.792;12.960;2023-03-23T10:34:20;3.27;;;0.60;;
70433;SDS011;57876;47.792;12.960;2023-03-23T10:36:55;3.70;;;0.70;;
70433;SDS011;57876;47.792;12.960;2023-03-23T10:39:26;3.63;;;0.80;;
70433;SDS011;57876;47.792;12.960;2023-03-23T10:41:55;3.30;;;0.80;;
70433;SDS011;57876;47.792;12.960;2023-03-23T10:44:22;4.30;;;1.00;;
70433;SDS011;57876;47.792;12.960;2023-03-23T10:47:00;3.70;;;0.73;;
70433;SDS011;57876;47.792;12.960;2023-03-23T10:49:30;3.65;;;0.70;;
70433;SDS011;57876;47.792;12.960;2023-03-23T10:52:04;4.10;;;0.80;;
70433;SDS011;57876;47.792;12.960;2023-03-23T10:54:54;3.55;;;0.73;;
70433;SDS011;57876;47.792;12.960;2023-03-23T10:57:27;3.47;;;0.70;;
70433;SDS011;57876;47.792;12.960;2023-03-23T10:59:58;3.50;;;0.70;;
70433;SDS011;57876;47.792;12.960;2023-03-23T11:02:36;3.28;;;0.70;;
70433;SDS011;57876;47.792;12.960;2023-03-23T11:05:07;3.42;;;0.77;;
70433;SDS011;57876;47.792;12.960;2023-03-23T11:07:41;3.60;;;0.70;;
70433;SDS011;57876;47.792;12.960;2023-03-23T11:10:16;3.47;;;0.75;;
70433;SDS011;57876;47.792;12.960;2023-03-23T11:12:45;3.47;;;0.70;;
70433;SDS011;57876;47.792;12.960;2023-03-23T11:15:25;3.63;;;0.70;;
70433;SDS011;57876;47.792;12.960;2023-03-23T11:18:02;3.40;;;0.60;;
70433;SDS011;57876;47.792;12.960;2023-03-23T11:20:32;3.25;;;0.60;;
70433;SDS011;57876;47.792;12.960;2023-03-23T11:22:59;3.90;;;0.80;;
70433;SDS011;57876;47.792;12.960;2023-03-23T11:25:24;3.60;;;0.70;;
70433;SDS011;57876;47.792;12.960;2023-03-23T11:27:50;2.97;;;0.60;;
70433;SDS011;57876;47.792;12.960;2023-03-23T11:32:45;3.70;;;0.80;;
70433;SDS011;57876;47.792;12.960;2023-03-23T11:35:18;3.17;;;0.60;;
70433;SDS011;57876;47.792;12.960;2023-03-23T11:40:22;3.40;;;0.70;;
70433;SDS011;57876;47.792;12.960;2023-03-23T11:42:49;4.10;;;0.90;;
70433;SDS011;57876;47.792;12.960;2023-03-23T11:45:24;3.75;;;0.70;;
70433;SDS011;57876;47.792;12.960;2023-03-23T11:56:34;3.45;;;0.70;;
70433;SDS011;57876;47.792;12.960;2023-03-23T11:59:00;3.50;;;0.60;;
70433;SDS011;57876;47.792;12.960;2023-03-23T12:07:09;3.53;;;0.77;;
70433;SDS011;57876;47.792;12.960;2023-03-23T12:12:09;3.20;;;0.70;;
70433;SDS011;57876;47.792;12.960;2023-03-23T12:23:28;3.97;;;0.77;;
70433;SDS011;57876;47.792;12.960;2023-03-23T12:28:53;3.43;;;0.63;;
70433;SDS011;57876;47.792;12.960;2023-03-23T12:40:29;3.88;;;0.80;;
70433;SDS011;57876;47.792;12.960;2023-03-23T12:48:28;3.53;;;0.80;;
70433;SDS011;57876;47.792;12.960;2023-03-23T12:53:30;4.37;;;0.80;;
70433;SDS011;57876;47.792;12.960;2023-03-23T12:56:10;8.10;;;1.90;;
70433;SDS011;57876;47.792;12.960;2023-03-23T12:58:44;7.15;;;1.70;;
70433;SDS011;57876;47.792;12.960;2023-03-23T13:01:11;7.47;;;1.73;;
70433;SDS011;57876;47.792;12.960;2023-03-23T13:06:41;6.53;;;1.30;;
70433;SDS011;57876;47.792;12.960;2023-03-23T13:09:12;6.40;;;1.30;;
70433;SDS011;57876;47.792;12.960;2023-03-23T13:11:39;4.90;;;1.17;;
70433;SDS011;57876;47.792;12.960;2023-03-23T13:22:48;6.72;;;1.45;;
70433;SDS011;57876;47.792;12.960;2023-03-23T13:25:21;8.02;;;1.65;;
70433;SDS011;57876;47.792;12.960;2023-03-23T13:28:12;7.30;;;1.53;;
70433;SDS011;57876;47.792;12.960;2023-03-23T13:30:39;7.72;;;1.90;;
70433;SDS011;57876;47.792;12.960;2023-03-23T13:33:04;8.47;;;1.80;;
70433;SDS011;57876;47.792;12.960;2023-03-23T13:35:35;7.28;;;1.90;;
70433;SDS011;57876;47.792;12.960;2023-03-23T13:38:12;7.55;;;1.60;;
70433;SDS011;57876;47.792;12.960;2023-03-23T13:40:43;5.60;;;1.50;;
70433;SDS011;57876;47.792;12.960;2023-03-23T13:43:08;7.18;;;1.70;;
70433;SDS011;57876;47.792;12.960;2023-03-23T13:45:46;9.20;;;1.97;;
70433;SDS011;57876;47.792;12.960;2023-03-23T13:50:53;6.90;;;1.40;;
70433;SDS011;57876;47.792;12.960;2023-03-23T13:53:28;7.65;;;1.67;;
70433;SDS011;57876;47.792;12.960;2023-03-23T13:59:08;6.22;;;1.60;;
70433;SDS011;57876;47.792;12.960;2023-03-23T14:01:39;5.33;;;1.27;;
70433;SDS011;57876;47.792;12.960;2023-03-23T14:04:06;5.32;;;1.38;;
70433;SDS011;57876;47.792;12.960;2023-03-23T14:06:34;6.55;;;1.40;;
70433;SDS011;57876;47.792;12.960;2023-03-23T14:09:04;5.40;;;1.48;;
70433;SDS011;57876;47.792;12.960;2023-03-23T14:11:33;6.45;;;1.75;;
70433;SDS011;57876;47.792;12.960;2023-03-23T14:14:06;6.97;;;1.10;;
70433;SDS011;57876;47.792;12.960;2023-03-23T14:19:04;5.97;;;1.30;;
70433;SDS011;57876;47.792;12.960;2023-03-23T14:21:50;6.70;;;1.40;;
70433;SDS011;57876;47.792;12.960;2023-03-23T14:24:19;5.63;;;1.30;;
70433;SDS011;57876;47.792;12.960;2023-03-23T14:26:47;4.70;;;1.10;;
70433;SDS011;57876;47.792;12.960;2023-03-23T14:29:12;6.25;;;1.20;;
70433;SDS011;57876;47.792;12.960;2023-03-23T14:31:38;6.03;;;1.30;;
70433;SDS011;57876;47.792;12.960;2023-03-23T14:34:04;6.28;;;1.30;;
70433;SDS011;57876;47.792;12.960;2023-03-23T14:36:37;5.28;;;1.20;;
70433;SDS011;57876;47.792;12.960;2023-03-23T14:39:06;6.33;;;1.43;;
70433;SDS011;57876;47.792;12.960;2023-03-23T14:41:52;6.00;;;1.52;;
70433;SDS011;57876;47.792;12.960;2023-03-23T14:44:21;5.65;;;1.30;;
70433;SDS011;57876;47.792;12.960;2023-03-23T14:46:49;4.40;;;1.20;;
70433;SDS011;57876;47.792;12.960;2023-03-23T14:49:15;6.05;;;1.35;;
70433;SDS011;57876;47.792;12.960;2023-03-23T14:51:53;6.80;;;1.47;;
70433;SDS011;57876;47.792;12.960;2023-03-23T14:54:25;7.22;;;1.73;;
70433;SDS011;57876;47.792;12.960;2023-03-23T14:56:52;7.00;;;1.60;;
70433;SDS011;57876;47.792;12.960;2023-03-23T14:59:17;5.80;;;1.33;;
70433;SDS011;57876;47.792;12.960;2023-03-23T15:01:41;5.40;;;1.20;;
70433;SDS011;57876;47.792;12.960;2023-03-23T15:04:10;5.32;;;1.33;;
70433;SDS011;57876;47.792;12.960;2023-03-23T15:06:39;6.50;;;1.30;;
70433;SDS011;57876;47.792;12.960;2023-03-23T15:09:09;6.18;;;1.25;;
70433;SDS011;57876;47.792;12.960;2023-03-23T15:11:40;5.07;;;1.27;;
70433;SDS011;57876;47.792;12.960;2023-03-23T15:14:10;5.73;;;1.20;;
70433;SDS011;57876;47.792;12.960;2023-03-23T15:16:45;5.38;;;1.30;;
70433;SDS011;57876;47.792;12.960;2023-03-23T15:19:13;5.10;;;1.23;;
70433;SDS011;57876;47.792;12.960;2023-03-23T15:21:48;4.20;;;1.00;;
70433;SDS011;57876;47.792;12.960;2023-03-23T15:26:51;5.47;;;1.10;;
70433;SDS011;57876;47.792;12.960;2023-03-23T15:29:20;5.78;;;1.10;;
70433;SDS011;57876;47.792;12.960;2023-03-23T15:31:52;5.68;;;1.10;;
70433;SDS011;57876;47.792;12.960;2023-03-23T15:37:04;4.93;;;1.00;;
70433;SDS011;57876;47.792;12.960;2023-03-23T15:39:39;5.53;;;1.10;;
70433;SDS011;57876;47.792;12.960;2023-03-23T15:42:05;6.50;;;1.40;;
70433;SDS011;57876;47.792;12.960;2023-03-23T15:44:30;5.30;;;1.10;;
70433;SDS011;57876;47.792;12.960;2023-03-23T15:47:14;5.38;;;1.27;;
70433;SDS011;57876;47.792;12.960;2023-03-23T15:49:43;5.30;;;1.10;;
70433;SDS011;57876;47.792;12.960;2023-03-23T15:52:09;5.03;;;1.10;;
70433;SDS011;57876;47.792;12.960;2023-03-23T15:54:35;4.80;;;1.20;;
70433;SDS011;57876;47.792;12.960;2023-03-23T15:57:00;5.83;;;1.20;;
70433;SDS011;57876;47.792;12.960;2023-03-23T15:59:24;5.87;;;1.40;;
70433;SDS011;57876;47.792;12.960;2023-03-23T16:01:49;5.03;;;1.20;;
70433;SDS011;57876;47.792;12.960;2023-03-23T16:04:14;5.80;;;1.10;;
70433;SDS011;57876;47.792;12.960;2023-03-23T16:06:42;4.63;;;1.20;;
70433;SDS011;57876;47.792;12.960;2023-03-23T16:09:06;4.88;;;1.08;;
70433;SDS011;57876;47.792;12.960;2023-03-23T16:11:36;4.73;;;1.30;;
70433;SDS011;57876;47.792;12.960;2023-03-23T16:14:01;5.28;;;1.17;;
70433;SDS011;57876;47.792;12.960;2023-03-23T16:16:27;6.18;;;1.48;;
70433;SDS011;57876;47.792;12.960;2023-03-23T16:18:55;5.33;;;1.17;;
70433;SDS011;57876;47.792;12.960;2023-03-23T16:21:19;5.00;;;1.10;;
70433;SDS011;57876;47.792;12.960;2023-03-23T16:23:45;5.88;;;1.15;;
70433;SDS011;57876;47.792;12.960;2023-03-23T16:26:09;6.70;;;1.40;;
70433;SDS011;57876;47.792;12.960;2023-03-23T16:28:34;5.17;;;1.20;;
70433;SDS011;57876;47.792;12.960;2023-03-23T16:31:00;5.40;;;1.70;;
70433;SDS011;57876;47.792;12.960;2023-03-23T16:33:24;5.43;;;1.23;;
70433;SDS011;57876;47.792;12.960;2023-03-23T16:35:49;5.63;;;1.37;;
70433;SDS011;57876;47.792;12.960;2023-03-23T16:38:14;5.73;;;1.50;;
70433;SDS011;57876;47.792;12.960;2023-03-23T16:40:39;5.75;;;1.40;;